N76SAM KBOS-KBWI
Flight info
| Callsign | N76SAM |
|---|---|
| Flight time | 0h 56m |
| Altitude | 38000 |
| Route | PATSS7 PATSS NELIE BIZEX Q75 MXE NUGGY TRISH4 |
| Aircraft | A20N/M-SDE2E3FGHIRWXY/LB1 |
Departure
| Time | 2026-05-04 01:35 |
|---|---|
| Airport | Boston Logan International Airport (KBOS) |
Arrival
| Time | 2026-05-04 02:32 |
|---|---|
| Airport | Baltimore/Washington International Thurgood Marshall Airport (KBWI) |
| Time | Latitude | Longitude | Altitude | Speed | Heading |
|---|---|---|---|---|---|
| 2026-05-04 01:15 | 42.37103 | -71.02141 | 25 ft | 0 kts | 132° |
| 2026-05-04 01:21 | 42.37114 | -71.02156 | 30 ft | 3 kts | 132° |
| 2026-05-04 01:21 | 42.37127 | -71.02176 | 30 ft | 3 kts | 132° |
| 2026-05-04 01:22 | 42.37139 | -71.02195 | 27 ft | 3 kts | 132° |
| 2026-05-04 01:22 | 42.37143 | -71.02201 | 29 ft | 0 kts | 132° |
| 2026-05-04 01:24 | 42.37142 | -71.02197 | 27 ft | 3 kts | 120° |
| 2026-05-04 01:24 | 42.37163 | -71.02166 | 26 ft | 1 kts | 39° |
| 2026-05-04 01:24 | 42.37167 | -71.02162 | 25 ft | 3 kts | 38° |
| 2026-05-04 01:24 | 42.37211 | -71.02100 | 27 ft | 14 kts | 59° |
| 2026-05-04 01:25 | 42.37228 | -71.01992 | 28 ft | 11 kts | 93° |
| 2026-05-04 01:25 | 42.37203 | -71.01907 | 29 ft | 13 kts | 120° |
| 2026-05-04 01:25 | 42.37126 | -71.01755 | 29 ft | 26 kts | 125° |
| 2026-05-04 01:25 | 42.36990 | -71.01536 | 31 ft | 31 kts | 134° |
| 2026-05-04 01:26 | 42.36923 | -71.01444 | 27 ft | 14 kts | 135° |
| 2026-05-04 01:26 | 42.36824 | -71.01312 | 27 ft | 26 kts | 136° |
| 2026-05-04 01:26 | 42.36678 | -71.01252 | 26 ft | 20 kts | 193° |
| 2026-05-04 01:26 | 42.36549 | -71.01311 | 22 ft | 19 kts | 204° |
| 2026-05-04 01:27 | 42.36439 | -71.01377 | 24 ft | 13 kts | 204° |
| 2026-05-04 01:27 | 42.36383 | -71.01382 | 24 ft | 3 kts | 153° |
| 2026-05-04 01:27 | 42.36326 | -71.01291 | 27 ft | 13 kts | 122° |
| 2026-05-04 01:27 | 42.36267 | -71.01159 | 26 ft | 22 kts | 117° |
| 2026-05-04 01:28 | 42.36197 | -71.00953 | 27 ft | 23 kts | 116° |
| 2026-05-04 01:28 | 42.36145 | -71.00777 | 25 ft | 19 kts | 110° |
| 2026-05-04 01:28 | 42.36095 | -71.00617 | 23 ft | 17 kts | 108° |
| 2026-05-04 01:28 | 42.36063 | -71.00480 | 25 ft | 14 kts | 107° |
| 2026-05-04 01:29 | 42.36056 | -71.00447 | 27 ft | 0 kts | 107° |
| 2026-05-04 01:29 | 42.36033 | -71.00356 | 27 ft | 26 kts | 108° |
| 2026-05-04 01:30 | 42.35953 | -71.00079 | 28 ft | 30 kts | 125° |
| 2026-05-04 01:30 | 42.35904 | -71.00008 | 28 ft | 0 kts | 138° |
| 2026-05-04 01:30 | 42.35863 | -70.99949 | 29 ft | 23 kts | 133° |
| 2026-05-04 01:30 | 42.35754 | -70.99802 | 28 ft | 22 kts | 136° |
| 2026-05-04 01:31 | 42.35653 | -70.99661 | 26 ft | 20 kts | 136° |
| 2026-05-04 01:31 | 42.35557 | -70.99539 | 25 ft | 19 kts | 136° |
| 2026-05-04 01:31 | 42.35493 | -70.99412 | 26 ft | 14 kts | 96° |
| 2026-05-04 01:31 | 42.35496 | -70.99374 | 27 ft | 0 kts | 75° |
| 2026-05-04 01:34 | 42.35520 | -70.99285 | 27 ft | 6 kts | 28° |
| 2026-05-04 01:34 | 42.35624 | -70.99377 | 24 ft | 43 kts | 315° |
| 2026-05-04 01:35 | 42.36055 | -70.99966 | 29 ft | 131 kts | 315° |
| 2026-05-04 01:35 | 42.36856 | -71.01047 | 305 ft | 183 kts | 315° |
| 2026-05-04 01:35 | 42.37854 | -71.02055 | 1571 ft | 174 kts | 316° |
| 2026-05-04 01:35 | 42.38357 | -71.03607 | 2457 ft | 201 kts | 263° |
| 2026-05-04 01:36 | 42.37760 | -71.05424 | 3261 ft | 232 kts | 233° |
| 2026-05-04 01:36 | 42.36685 | -71.07385 | 3647 ft | 286 kts | 235° |
| 2026-05-04 01:36 | 42.35520 | -71.09884 | 3855 ft | 342 kts | 240° |
| 2026-05-04 01:36 | 42.34367 | -71.12929 | 3939 ft | 393 kts | 245° |
| 2026-05-04 01:37 | 42.33192 | -71.16516 | 3972 ft | 439 kts | 247° |
| 2026-05-04 01:37 | 42.32067 | -71.20288 | 3983 ft | 406 kts | 249° |
| 2026-05-04 01:37 | 42.31116 | -71.23633 | 3994 ft | 358 kts | 249° |
| 2026-05-04 01:37 | 42.30279 | -71.26642 | 3997 ft | 336 kts | 250° |
| 2026-05-04 01:38 | 42.29467 | -71.29612 | 3994 ft | 337 kts | 250° |
| 2026-05-04 01:38 | 42.28671 | -71.32581 | 4000 ft | 336 kts | 250° |
| 2026-05-04 01:38 | 42.27884 | -71.35563 | 3997 ft | 337 kts | 251° |
| 2026-05-04 01:38 | 42.27110 | -71.38548 | 4007 ft | 336 kts | 251° |
| 2026-05-04 01:39 | 42.26352 | -71.41497 | 4005 ft | 337 kts | 251° |
| 2026-05-04 01:39 | 42.25591 | -71.44487 | 3998 ft | 336 kts | 251° |
| 2026-05-04 01:39 | 42.24836 | -71.47473 | 4007 ft | 337 kts | 251° |
| 2026-05-04 01:39 | 42.24083 | -71.50469 | 4001 ft | 337 kts | 251° |
| 2026-05-04 01:40 | 42.23333 | -71.53468 | 4098 ft | 339 kts | 251° |
| 2026-05-04 01:40 | 42.22563 | -71.56557 | 4316 ft | 358 kts | 251° |
| 2026-05-04 01:40 | 42.21735 | -71.59879 | 4717 ft | 388 kts | 251° |
| 2026-05-04 01:40 | 42.20846 | -71.63444 | 5399 ft | 414 kts | 251° |
| 2026-05-04 01:41 | 42.19904 | -71.67217 | 6270 ft | 433 kts | 251° |
| 2026-05-04 01:41 | 42.18929 | -71.71124 | 7268 ft | 445 kts | 251° |
| 2026-05-04 01:41 | 42.17931 | -71.75117 | 8399 ft | 452 kts | 251° |
| 2026-05-04 01:41 | 42.16923 | -71.79146 | 9650 ft | 454 kts | 251° |
| 2026-05-04 01:42 | 42.15911 | -71.83180 | 10955 ft | 454 kts | 251° |
| 2026-05-04 01:42 | 42.14903 | -71.87197 | 12331 ft | 449 kts | 251° |
| 2026-05-04 01:42 | 42.13938 | -71.91039 | 14561 ft | 420 kts | 251° |
| 2026-05-04 01:42 | 42.13008 | -71.94738 | 15999 ft | 419 kts | 251° |
| 2026-05-04 01:43 | 42.12063 | -71.98491 | 16831 ft | 426 kts | 251° |
| 2026-05-04 01:43 | 42.11116 | -72.02249 | 17693 ft | 432 kts | 251° |
| 2026-05-04 01:43 | 42.10142 | -72.06106 | 18516 ft | 438 kts | 251° |
| 2026-05-04 01:43 | 42.09156 | -72.10004 | 18892 ft | 440 kts | 251° |
| 2026-05-04 01:44 | 42.08169 | -72.13902 | 18897 ft | 440 kts | 251° |
| 2026-05-04 01:44 | 42.07177 | -72.17816 | 18915 ft | 443 kts | 251° |
| 2026-05-04 01:44 | 42.06184 | -72.21721 | 19308 ft | 433 kts | 251° |
| 2026-05-04 01:44 | 42.05200 | -72.25585 | 19510 ft | 442 kts | 251° |
| 2026-05-04 01:45 | 42.04194 | -72.29536 | 20074 ft | 449 kts | 251° |
| 2026-05-04 01:45 | 42.03176 | -72.33524 | 20842 ft | 453 kts | 251° |
| 2026-05-04 01:45 | 42.01104 | -72.41621 | 22188 ft | 463 kts | 251° |
| 2026-05-04 01:46 | 42.00049 | -72.45733 | 22847 ft | 468 kts | 251° |
| 2026-05-04 01:46 | 41.98972 | -72.49925 | 23142 ft | 480 kts | 251° |
| 2026-05-04 01:46 | 41.97876 | -72.54189 | 23713 ft | 485 kts | 251° |
| 2026-05-04 01:46 | 41.96766 | -72.58495 | 24274 ft | 489 kts | 251° |
| 2026-05-04 01:47 | 41.95663 | -72.62773 | 24821 ft | 493 kts | 251° |
| 2026-05-04 01:47 | 41.94262 | -72.66993 | 25326 ft | 498 kts | 237° |
| 2026-05-04 01:47 | 41.92156 | -72.70687 | 25968 ft | 498 kts | 230° |
| 2026-05-04 01:47 | 41.89881 | -72.74146 | 26882 ft | 493 kts | 228° |
| 2026-05-04 01:48 | 41.87547 | -72.77527 | 27517 ft | 494 kts | 227° |
| 2026-05-04 01:48 | 41.85517 | -72.80398 | 28110 ft | 493 kts | 226° |
| 2026-05-04 01:48 | 41.83132 | -72.83724 | 28661 ft | 495 kts | 226° |
| 2026-05-04 01:48 | 41.80739 | -72.87033 | 29424 ft | 490 kts | 226° |
| 2026-05-04 01:49 | 41.78358 | -72.90308 | 30021 ft | 492 kts | 226° |
| 2026-05-04 01:49 | 41.76008 | -72.93530 | 30854 ft | 484 kts | 226° |
| 2026-05-04 01:49 | 41.73676 | -72.96722 | 31784 ft | 477 kts | 226° |
| 2026-05-04 01:49 | 41.71339 | -72.99916 | 32162 ft | 481 kts | 226° |
| 2026-05-04 01:50 | 41.68989 | -73.03125 | 32567 ft | 484 kts | 226° |
| 2026-05-04 01:50 | 41.66623 | -73.06352 | 32958 ft | 488 kts | 226° |
| 2026-05-04 01:50 | 41.64238 | -73.09601 | 33364 ft | 490 kts | 225° |
| 2026-05-04 01:50 | 41.61839 | -73.12865 | 33713 ft | 493 kts | 225° |
| 2026-05-04 01:51 | 41.59431 | -73.16140 | 33861 ft | 495 kts | 225° |
| 2026-05-04 01:51 | 41.57018 | -73.19417 | 34072 ft | 492 kts | 225° |
| 2026-05-04 01:51 | 41.54638 | -73.22646 | 34815 ft | 485 kts | 225° |
| 2026-05-04 01:51 | 41.52305 | -73.25808 | 35522 ft | 479 kts | 225° |
| 2026-05-04 01:52 | 41.49964 | -73.28978 | 35989 ft | 480 kts | 225° |
| 2026-05-04 01:52 | 41.47625 | -73.32142 | 36603 ft | 475 kts | 225° |
| 2026-05-04 01:52 | 41.45293 | -73.35294 | 36842 ft | 479 kts | 225° |
| 2026-05-04 01:52 | 41.42934 | -73.38479 | 36849 ft | 485 kts | 225° |
| 2026-05-04 01:53 | 41.38186 | -73.44882 | 36995 ft | 487 kts | 225° |
| 2026-05-04 01:53 | 41.35831 | -73.48053 | 37512 ft | 475 kts | 225° |
| 2026-05-04 01:53 | 41.33514 | -73.51172 | 37789 ft | 474 kts | 225° |
| 2026-05-04 01:54 | 41.31214 | -73.54272 | 37908 ft | 481 kts | 226° |
| 2026-05-04 01:54 | 41.28897 | -73.57604 | 37958 ft | 486 kts | 229° |
| 2026-05-04 01:54 | 41.26741 | -73.60914 | 37982 ft | 473 kts | 230° |
| 2026-05-04 01:54 | 41.24646 | -73.64239 | 37990 ft | 467 kts | 230° |
| 2026-05-04 01:55 | 41.20539 | -73.70924 | 37996 ft | 468 kts | 231° |
| 2026-05-04 01:55 | 41.16451 | -73.77684 | 37998 ft | 470 kts | 231° |
| 2026-05-04 01:56 | 41.12391 | -73.84467 | 37998 ft | 468 kts | 232° |
| 2026-05-04 01:56 | 41.08346 | -73.91243 | 37998 ft | 467 kts | 232° |
| 2026-05-04 01:57 | 41.04308 | -73.98009 | 37999 ft | 469 kts | 232° |
| 2026-05-04 01:57 | 41.00259 | -74.04782 | 37998 ft | 468 kts | 232° |
| 2026-05-04 01:58 | 40.96212 | -74.11542 | 37999 ft | 467 kts | 232° |
| 2026-05-04 01:58 | 40.92193 | -74.18242 | 37999 ft | 468 kts | 232° |
| 2026-05-04 01:59 | 40.88136 | -74.24993 | 37999 ft | 469 kts | 232° |
| 2026-05-04 01:59 | 40.84079 | -74.31732 | 37999 ft | 468 kts | 231° |
| 2026-05-04 02:00 | 40.80016 | -74.38468 | 38000 ft | 468 kts | 231° |
| 2026-05-04 02:00 | 40.75949 | -74.45180 | 38000 ft | 469 kts | 231° |
| 2026-05-04 02:01 | 40.71870 | -74.51894 | 37999 ft | 469 kts | 231° |
| 2026-05-04 02:01 | 40.67817 | -74.58557 | 38000 ft | 468 kts | 231° |
| 2026-05-04 02:02 | 40.63739 | -74.65252 | 38001 ft | 469 kts | 231° |
| 2026-05-04 02:02 | 40.59627 | -74.71928 | 38000 ft | 469 kts | 230° |
| 2026-05-04 02:03 | 40.55311 | -74.78356 | 38000 ft | 468 kts | 228° |
| 2026-05-04 02:03 | 40.50902 | -74.84665 | 38000 ft | 468 kts | 227° |
| 2026-05-04 02:04 | 40.46462 | -74.90932 | 38000 ft | 469 kts | 227° |
| 2026-05-04 02:04 | 40.42036 | -74.97153 | 38000 ft | 468 kts | 227° |
| 2026-05-04 02:05 | 40.37585 | -75.03403 | 37938 ft | 469 kts | 227° |
| 2026-05-04 02:05 | 40.35328 | -75.06568 | 36868 ft | 483 kts | 227° |
| 2026-05-04 02:05 | 40.33020 | -75.09804 | 34791 ft | 487 kts | 227° |
| 2026-05-04 02:06 | 40.30695 | -75.13061 | 32441 ft | 490 kts | 227° |
| 2026-05-04 02:06 | 40.28357 | -75.16334 | 30154 ft | 494 kts | 227° |
| 2026-05-04 02:06 | 40.26001 | -75.19629 | 27954 ft | 498 kts | 227° |
| 2026-05-04 02:06 | 40.23617 | -75.22961 | 25855 ft | 503 kts | 227° |
| 2026-05-04 02:07 | 40.21235 | -75.26289 | 24355 ft | 495 kts | 227° |
| 2026-05-04 02:07 | 40.18909 | -75.29533 | 22962 ft | 483 kts | 227° |
| 2026-05-04 02:07 | 40.16637 | -75.32700 | 21555 ft | 472 kts | 227° |
| 2026-05-04 02:07 | 40.14440 | -75.35757 | 20178 ft | 462 kts | 227° |
| 2026-05-04 02:08 | 40.12262 | -75.38784 | 18788 ft | 452 kts | 227° |
| 2026-05-04 02:08 | 40.10125 | -75.41749 | 17424 ft | 443 kts | 227° |
| 2026-05-04 02:08 | 40.08032 | -75.44649 | 16051 ft | 434 kts | 227° |
| 2026-05-04 02:08 | 40.05983 | -75.47486 | 14700 ft | 425 kts | 227° |
| 2026-05-04 02:09 | 40.03970 | -75.50272 | 13341 ft | 417 kts | 227° |
| 2026-05-04 02:09 | 40.01993 | -75.53006 | 12009 ft | 409 kts | 227° |
| 2026-05-04 02:09 | 40.00032 | -75.55718 | 10970 ft | 413 kts | 227° |
| 2026-05-04 02:09 | 39.98088 | -75.58403 | 10592 ft | 405 kts | 227° |
| 2026-05-04 02:10 | 39.96182 | -75.61034 | 10263 ft | 402 kts | 227° |
| 2026-05-04 02:10 | 39.94284 | -75.63687 | 10119 ft | 400 kts | 229° |
| 2026-05-04 02:10 | 39.92511 | -75.66498 | 10053 ft | 401 kts | 232° |
| 2026-05-04 02:10 | 39.90831 | -75.69392 | 10025 ft | 400 kts | 234° |
| 2026-05-04 02:11 | 39.89195 | -75.72333 | 10019 ft | 401 kts | 234° |
| 2026-05-04 02:11 | 39.87588 | -75.75297 | 10015 ft | 401 kts | 235° |
| 2026-05-04 02:11 | 39.85996 | -75.78278 | 10008 ft | 401 kts | 236° |
| 2026-05-04 02:11 | 39.84415 | -75.81270 | 10011 ft | 400 kts | 236° |
| 2026-05-04 02:12 | 39.82844 | -75.84262 | 10006 ft | 401 kts | 236° |
| 2026-05-04 02:12 | 39.81274 | -75.87259 | 10004 ft | 401 kts | 236° |
| 2026-05-04 02:12 | 39.79704 | -75.90262 | 10003 ft | 401 kts | 236° |
| 2026-05-04 02:12 | 39.78138 | -75.93260 | 10004 ft | 400 kts | 236° |
| 2026-05-04 02:13 | 39.76571 | -75.96258 | 10009 ft | 401 kts | 236° |
| 2026-05-04 02:13 | 39.75002 | -75.99256 | 10007 ft | 401 kts | 236° |
| 2026-05-04 02:13 | 39.73452 | -76.02212 | 9999 ft | 400 kts | 236° |
| 2026-05-04 02:13 | 39.71877 | -76.05209 | 10002 ft | 400 kts | 236° |
| 2026-05-04 02:14 | 39.70286 | -76.08187 | 10003 ft | 401 kts | 234° |
| 2026-05-04 02:14 | 39.68581 | -76.11056 | 10005 ft | 400 kts | 231° |
| 2026-05-04 02:14 | 39.66801 | -76.13837 | 10006 ft | 400 kts | 230° |
| 2026-05-04 02:14 | 39.64972 | -76.16571 | 10000 ft | 400 kts | 229° |
| 2026-05-04 02:15 | 39.63114 | -76.19264 | 9999 ft | 401 kts | 228° |
| 2026-05-04 02:15 | 39.61256 | -76.21902 | 9999 ft | 401 kts | 227° |
| 2026-05-04 02:15 | 39.59191 | -76.24316 | 10000 ft | 401 kts | 212° |
| 2026-05-04 02:15 | 39.56579 | -76.25522 | 9997 ft | 402 kts | 188° |
| 2026-05-04 02:16 | 39.53805 | -76.25249 | 10005 ft | 403 kts | 165° |
| 2026-05-04 02:16 | 39.51282 | -76.23716 | 10000 ft | 403 kts | 144° |
| 2026-05-04 02:16 | 39.49421 | -76.21023 | 10002 ft | 404 kts | 120° |
| 2026-05-04 02:16 | 39.48546 | -76.17598 | 10000 ft | 403 kts | 96° |
| 2026-05-04 02:17 | 39.48802 | -76.14003 | 10002 ft | 404 kts | 73° |
| 2026-05-04 02:17 | 39.50144 | -76.10833 | 10000 ft | 404 kts | 49° |
| 2026-05-04 02:17 | 39.52312 | -76.08647 | 9997 ft | 402 kts | 26° |
| 2026-05-04 02:17 | 39.55002 | -76.07746 | 10004 ft | 402 kts | 2° |
| 2026-05-04 02:18 | 39.57739 | -76.08316 | 9998 ft | 401 kts | 339° |
| 2026-05-04 02:18 | 39.60069 | -76.10260 | 9999 ft | 400 kts | 315° |
| 2026-05-04 02:18 | 39.61594 | -76.13247 | 9999 ft | 400 kts | 291° |
| 2026-05-04 02:18 | 39.62080 | -76.16776 | 10007 ft | 399 kts | 271° |
| 2026-05-04 02:19 | 39.62393 | -76.20342 | 9991 ft | 400 kts | 287° |
| 2026-05-04 02:19 | 39.63770 | -76.23457 | 9991 ft | 401 kts | 311° |
| 2026-05-04 02:19 | 39.66010 | -76.25560 | 9999 ft | 401 kts | 333° |
| 2026-05-04 02:19 | 39.68375 | -76.27466 | 9993 ft | 401 kts | 317° |
| 2026-05-04 02:20 | 39.69980 | -76.30382 | 10005 ft | 400 kts | 293° |
| 2026-05-04 02:20 | 39.70530 | -76.33901 | 9998 ft | 400 kts | 269° |
| 2026-05-04 02:20 | 39.69936 | -76.37411 | 10006 ft | 401 kts | 246° |
| 2026-05-04 02:20 | 39.68303 | -76.40316 | 10002 ft | 401 kts | 222° |
| 2026-05-04 02:21 | 39.65911 | -76.42120 | 10004 ft | 402 kts | 199° |
| 2026-05-04 02:21 | 39.63144 | -76.42528 | 10007 ft | 403 kts | 175° |
| 2026-05-04 02:21 | 39.60485 | -76.41468 | 10004 ft | 403 kts | 152° |
| 2026-05-04 02:21 | 39.58102 | -76.39543 | 10001 ft | 404 kts | 147° |
| 2026-05-04 02:22 | 39.55648 | -76.37773 | 9995 ft | 404 kts | 156° |
| 2026-05-04 02:22 | 39.52989 | -76.36825 | 9993 ft | 402 kts | 173° |
| 2026-05-04 02:22 | 39.50211 | -76.37024 | 9997 ft | 401 kts | 191° |
| 2026-05-04 02:22 | 39.47491 | -76.37846 | 9997 ft | 402 kts | 195° |
| 2026-05-04 02:23 | 39.44804 | -76.38831 | 10000 ft | 401 kts | 197° |
| 2026-05-04 02:23 | 39.42133 | -76.39873 | 9990 ft | 401 kts | 197° |
| 2026-05-04 02:23 | 39.39471 | -76.40904 | 9621 ft | 397 kts | 197° |
| 2026-05-04 02:23 | 39.36833 | -76.41871 | 8628 ft | 391 kts | 195° |
| 2026-05-04 02:24 | 39.35069 | -76.42492 | 7769 ft | 387 kts | 195° |
| 2026-05-04 02:24 | 39.32518 | -76.43363 | 6492 ft | 380 kts | 195° |
| 2026-05-04 02:24 | 39.29978 | -76.44211 | 5250 ft | 378 kts | 194° |
| 2026-05-04 02:24 | 39.27443 | -76.45047 | 4739 ft | 372 kts | 194° |
| 2026-05-04 02:25 | 39.24932 | -76.45870 | 4364 ft | 371 kts | 194° |
| 2026-05-04 02:25 | 39.22446 | -76.46668 | 4162 ft | 360 kts | 194° |
| 2026-05-04 02:25 | 39.20125 | -76.47395 | 4074 ft | 325 kts | 194° |
| 2026-05-04 02:25 | 39.18031 | -76.48040 | 4031 ft | 295 kts | 194° |
| 2026-05-04 02:26 | 39.16122 | -76.48597 | 4007 ft | 270 kts | 188° |
| 2026-05-04 02:26 | 39.14272 | -76.48568 | 4016 ft | 267 kts | 172° |
| 2026-05-04 02:26 | 39.12467 | -76.48012 | 4006 ft | 266 kts | 162° |
| 2026-05-04 02:26 | 39.10766 | -76.47123 | 4014 ft | 258 kts | 154° |
| 2026-05-04 02:27 | 39.09251 | -76.46069 | 4011 ft | 237 kts | 150° |
| 2026-05-04 02:27 | 39.07783 | -76.45428 | 4033 ft | 225 kts | 185° |
| 2026-05-04 02:27 | 39.06359 | -76.46207 | 4067 ft | 224 kts | 229° |
| 2026-05-04 02:27 | 39.05805 | -76.47962 | 4059 ft | 218 kts | 267° |
| 2026-05-04 02:28 | 39.05860 | -76.49945 | 4027 ft | 221 kts | 275° |
| 2026-05-04 02:28 | 39.06062 | -76.51904 | 3881 ft | 222 kts | 280° |
| 2026-05-04 02:28 | 39.06376 | -76.53800 | 3784 ft | 208 kts | 284° |
| 2026-05-04 02:28 | 39.06776 | -76.55498 | 3703 ft | 190 kts | 290° |
| 2026-05-04 02:29 | 39.07338 | -76.56998 | 3452 ft | 185 kts | 302° |
| 2026-05-04 02:29 | 39.08120 | -76.58315 | 3103 ft | 186 kts | 313° |
| 2026-05-04 02:29 | 39.09054 | -76.59412 | 2756 ft | 180 kts | 322° |
| 2026-05-04 02:29 | 39.10060 | -76.60367 | 2312 ft | 179 kts | 324° |
| 2026-05-04 02:30 | 39.11077 | -76.61300 | 1853 ft | 179 kts | 324° |
| 2026-05-04 02:30 | 39.12041 | -76.62180 | 1412 ft | 162 kts | 324° |
| 2026-05-04 02:30 | 39.12961 | -76.63027 | 1098 ft | 162 kts | 324° |
| 2026-05-04 02:30 | 39.13870 | -76.63869 | 828 ft | 160 kts | 324° |
| 2026-05-04 02:31 | 39.14775 | -76.64710 | 602 ft | 160 kts | 324° |
| 2026-05-04 02:31 | 39.15683 | -76.65556 | 387 ft | 168 kts | 324° |
| 2026-05-04 02:31 | 39.16578 | -76.66398 | 167 ft | 145 kts | 324° |
| 2026-05-04 02:31 | 39.17343 | -76.67105 | 150 ft | 104 kts | 325° |
| 2026-05-04 02:32 | 39.17707 | -76.67433 | 148 ft | 47 kts | 325° |
| 2026-05-04 02:32 | 39.17758 | -76.67746 | 145 ft | 45 kts | 252° |
| 2026-05-04 02:32 | 39.17710 | -76.67977 | 143 ft | 0 kts | 254° |